sensor_id;sensor_type;location;lat;lon;timestamp;pressure;altitude;pressure_sealevel;temperature;humidity
27144;BME280;14672;50.250;8.312;2024-02-14T00:00:12;99101.03;;;10.76;58.63
27144;BME280;14672;50.250;8.312;2024-02-14T00:02:44;99105.34;;;10.68;58.60
27144;BME280;14672;50.250;8.312;2024-02-14T00:05:10;99101.59;;;10.71;58.95
27144;BME280;14672;50.250;8.312;2024-02-14T00:07:38;99098.75;;;10.71;58.54
27144;BME280;14672;50.250;8.312;2024-02-14T00:10:05;99087.97;;;10.66;58.50
27144;BME280;14672;50.250;8.312;2024-02-14T00:12:36;99087.63;;;10.64;58.77
27144;BME280;14672;50.250;8.312;2024-02-14T00:15:03;99078.97;;;10.67;58.76
27144;BME280;14672;50.250;8.312;2024-02-14T00:17:31;99079.22;;;10.60;58.86
27144;BME280;14672;50.250;8.312;2024-02-14T00:20:01;99079.44;;;10.53;58.74
27144;BME280;14672;50.250;8.312;2024-02-14T00:22:26;99090.00;;;10.53;58.99
27144;BME280;14672;50.250;8.312;2024-02-14T00:24:52;99076.16;;;10.55;58.74
27144;BME280;14672;50.250;8.312;2024-02-14T00:27:18;99080.13;;;10.57;58.47
27144;BME280;14672;50.250;8.312;2024-02-14T00:29:43;99067.53;;;10.58;59.00
27144;BME280;14672;50.250;8.312;2024-02-14T00:32:12;99063.75;;;10.61;58.77
27144;BME280;14672;50.250;8.312;2024-02-14T00:34:38;99065.47;;;10.59;59.09
27144;BME280;14672;50.250;8.312;2024-02-14T00:37:03;99064.13;;;10.51;59.45
27144;BME280;14672;50.250;8.312;2024-02-14T00:39:29;99060.47;;;10.50;59.48
27144;BME280;14672;50.250;8.312;2024-02-14T00:41:55;99071.84;;;10.63;59.21
27144;BME280;14672;50.250;8.312;2024-02-14T00:44:22;99060.00;;;10.52;59.62
27144;BME280;14672;50.250;8.312;2024-02-14T00:46:48;99056.34;;;10.51;59.31
27144;BME280;14672;50.250;8.312;2024-02-14T00:49:14;99057.75;;;10.47;59.16
27144;BME280;14672;50.250;8.312;2024-02-14T00:51:40;99055.00;;;10.56;59.10
27144;BME280;14672;50.250;8.312;2024-02-14T00:54:07;99058.19;;;10.58;59.52
27144;BME280;14672;50.250;8.312;2024-02-14T00:56:33;99056.47;;;10.48;59.44
27144;BME280;14672;50.250;8.312;2024-02-14T00:59:00;99054.69;;;10.54;59.48
27144;BME280;14672;50.250;8.312;2024-02-14T01:01:26;99057.63;;;10.63;59.22
27144;BME280;14672;50.250;8.312;2024-02-14T01:03:52;99046.94;;;10.54;59.25
27144;BME280;14672;50.250;8.312;2024-02-14T01:06:18;99041.94;;;10.58;59.30
27144;BME280;14672;50.250;8.312;2024-02-14T01:08:45;99046.16;;;10.54;59.21
27144;BME280;14672;50.250;8.312;2024-02-14T01:11:11;99048.19;;;10.41;59.38
27144;BME280;14672;50.250;8.312;2024-02-14T01:13:37;99052.16;;;10.56;59.38
27144;BME280;14672;50.250;8.312;2024-02-14T01:16:04;99049.56;;;10.49;59.69
27144;BME280;14672;50.250;8.312;2024-02-14T01:18:30;99054.31;;;10.52;59.78
27144;BME280;14672;50.250;8.312;2024-02-14T01:20:57;99068.44;;;10.43;60.36
27144;BME280;14672;50.250;8.312;2024-02-14T01:23:24;99053.44;;;10.55;60.15
27144;BME280;14672;50.250;8.312;2024-02-14T01:25:50;99057.03;;;10.55;59.99
27144;BME280;14672;50.250;8.312;2024-02-14T01:28:16;99053.63;;;10.48;60.43
27144;BME280;14672;50.250;8.312;2024-02-14T01:30:43;99043.75;;;10.40;60.62
27144;BME280;14672;50.250;8.312;2024-02-14T01:33:09;99046.38;;;10.47;60.43
27144;BME280;14672;50.250;8.312;2024-02-14T01:35:35;99051.84;;;10.54;60.06
27144;BME280;14672;50.250;8.312;2024-02-14T01:38:00;99045.91;;;10.35;60.89
27144;BME280;14672;50.250;8.312;2024-02-14T01:40:28;99037.28;;;10.52;60.27
27144;BME280;14672;50.250;8.312;2024-02-14T01:42:54;99039.66;;;10.41;60.52
27144;BME280;14672;50.250;8.312;2024-02-14T01:45:21;99043.63;;;10.56;60.48
27144;BME280;14672;50.250;8.312;2024-02-14T01:47:48;99034.78;;;10.54;60.19
27144;BME280;14672;50.250;8.312;2024-02-14T01:50:16;99035.81;;;10.60;59.83
27144;BME280;14672;50.250;8.312;2024-02-14T01:52:45;99036.28;;;10.58;59.93
27144;BME280;14672;50.250;8.312;2024-02-14T01:55:12;99033.75;;;10.48;59.99
27144;BME280;14672;50.250;8.312;2024-02-14T01:57:39;99029.91;;;10.54;60.01
27144;BME280;14672;50.250;8.312;2024-02-14T02:00:06;99025.03;;;10.55;59.83
27144;BME280;14672;50.250;8.312;2024-02-14T02:02:40;99030.59;;;10.46;60.51
27144;BME280;14672;50.250;8.312;2024-02-14T02:05:06;99031.03;;;10.44;60.51
27144;BME280;14672;50.250;8.312;2024-02-14T02:07:33;99021.03;;;10.52;60.33
27144;BME280;14672;50.250;8.312;2024-02-14T02:09:59;99019.00;;;10.53;60.42
27144;BME280;14672;50.250;8.312;2024-02-14T02:12:25;99014.00;;;10.57;60.16
27144;BME280;14672;50.250;8.312;2024-02-14T02:14:53;99024.91;;;10.58;60.18
27144;BME280;14672;50.250;8.312;2024-02-14T02:17:19;99024.56;;;10.56;60.37
27144;BME280;14672;50.250;8.312;2024-02-14T02:19:46;99004.91;;;10.62;59.73
27144;BME280;14672;50.250;8.312;2024-02-14T02:22:12;99019.56;;;10.48;60.21
27144;BME280;14672;50.250;8.312;2024-02-14T02:24:38;99004.09;;;10.49;60.56
27144;BME280;14672;50.250;8.312;2024-02-14T02:27:04;99000.16;;;10.46;60.43
27144;BME280;14672;50.250;8.312;2024-02-14T02:29:30;98998.34;;;10.27;60.62
27144;BME280;14672;50.250;8.312;2024-02-14T02:31:58;99001.38;;;10.32;60.36
27144;BME280;14672;50.250;8.312;2024-02-14T02:34:23;98994.34;;;10.50;60.08
27144;BME280;14672;50.250;8.312;2024-02-14T02:36:49;98991.16;;;10.48;60.40
27144;BME280;14672;50.250;8.312;2024-02-14T02:39:16;98999.47;;;10.42;60.61
27144;BME280;14672;50.250;8.312;2024-02-14T02:41:43;98995.81;;;10.42;60.68
27144;BME280;14672;50.250;8.312;2024-02-14T02:44:13;98995.25;;;10.47;60.72
27144;BME280;14672;50.250;8.312;2024-02-14T02:46:38;98999.00;;;10.44;60.46
27144;BME280;14672;50.250;8.312;2024-02-14T02:49:04;99005.38;;;10.22;61.13
27144;BME280;14672;50.250;8.312;2024-02-14T02:51:30;99011.63;;;10.43;61.10
27144;BME280;14672;50.250;8.312;2024-02-14T02:53:56;99014.91;;;10.41;60.97
27144;BME280;14672;50.250;8.312;2024-02-14T02:56:21;99006.38;;;10.54;60.60
27144;BME280;14672;50.250;8.312;2024-02-14T02:58:47;99008.88;;;10.52;60.85
27144;BME280;14672;50.250;8.312;2024-02-14T03:01:14;99007.88;;;10.46;61.11
27144;BME280;14672;50.250;8.312;2024-02-14T03:03:40;98998.44;;;10.49;61.29
27144;BME280;14672;50.250;8.312;2024-02-14T03:06:07;99006.59;;;10.59;60.90
27144;BME280;14672;50.250;8.312;2024-02-14T03:08:33;99009.66;;;10.52;60.98
27144;BME280;14672;50.250;8.312;2024-02-14T03:11:05;99012.19;;;10.50;61.34
27144;BME280;14672;50.250;8.312;2024-02-14T03:13:31;99013.19;;;10.44;61.78
27144;BME280;14672;50.250;8.312;2024-02-14T03:15:57;99013.06;;;10.60;60.87
27144;BME280;14672;50.250;8.312;2024-02-14T03:18:24;99019.34;;;10.55;61.37
27144;BME280;14672;50.250;8.312;2024-02-14T03:20:50;99009.34;;;10.63;61.14
27144;BME280;14672;50.250;8.312;2024-02-14T03:23:19;99005.22;;;10.64;60.97
27144;BME280;14672;50.250;8.312;2024-02-14T03:25:45;99005.91;;;10.55;61.06
27144;BME280;14672;50.250;8.312;2024-02-14T03:28:11;99008.44;;;10.53;61.40
27144;BME280;14672;50.250;8.312;2024-02-14T03:30:39;99013.66;;;10.55;61.21
27144;BME280;14672;50.250;8.312;2024-02-14T03:33:07;99008.78;;;10.43;61.78
27144;BME280;14672;50.250;8.312;2024-02-14T03:35:35;99006.94;;;10.49;61.67
27144;BME280;14672;50.250;8.312;2024-02-14T03:38:02;99015.91;;;10.60;61.63
27144;BME280;14672;50.250;8.312;2024-02-14T03:40:29;99012.75;;;10.45;61.86
27144;BME280;14672;50.250;8.312;2024-02-14T03:42:56;99015.47;;;10.49;62.09
27144;BME280;14672;50.250;8.312;2024-02-14T03:45:22;99015.13;;;10.34;62.19
27144;BME280;14672;50.250;8.312;2024-02-14T03:47:48;99022.63;;;10.41;61.97
27144;BME280;14672;50.250;8.312;2024-02-14T03:50:14;99015.47;;;10.49;61.89
27144;BME280;14672;50.250;8.312;2024-02-14T03:52:41;99014.66;;;10.48;61.80
27144;BME280;14672;50.250;8.312;2024-02-14T03:55:08;99021.81;;;10.53;62.30
27144;BME280;14672;50.250;8.312;2024-02-14T03:57:40;99026.28;;;10.54;62.37
27144;BME280;14672;50.250;8.312;2024-02-14T04:00:06;99027.28;;;10.60;61.96
27144;BME280;14672;50.250;8.312;2024-02-14T04:02:36;99022.50;;;10.57;61.66
27144;BME280;14672;50.250;8.312;2024-02-14T04:05:01;99026.94;;;10.58;61.91
27144;BME280;14672;50.250;8.312;2024-02-14T04:07:30;99029.44;;;10.68;61.52
27144;BME280;14672;50.250;8.312;2024-02-14T04:09:56;99032.63;;;10.58;61.98
27144;BME280;14672;50.250;8.312;2024-02-14T04:12:21;99040.91;;;10.65;62.01
27144;BME280;14672;50.250;8.312;2024-02-14T04:14:47;99041.16;;;10.58;61.75
27144;BME280;14672;50.250;8.312;2024-02-14T04:17:14;99044.00;;;10.45;61.84
27144;BME280;14672;50.250;8.312;2024-02-14T04:19:40;99041.03;;;10.61;61.71
27144;BME280;14672;50.250;8.312;2024-02-14T04:22:06;99035.09;;;10.43;61.85
27144;BME280;14672;50.250;8.312;2024-02-14T04:24:35;99040.47;;;10.54;62.14
27144;BME280;14672;50.250;8.312;2024-02-14T04:27:01;99035.13;;;10.56;61.96
27144;BME280;14672;50.250;8.312;2024-02-14T04:29:33;99039.13;;;10.58;62.28
27144;BME280;14672;50.250;8.312;2024-02-14T04:32:02;99042.63;;;10.50;62.61
27144;BME280;14672;50.250;8.312;2024-02-14T04:34:28;99039.56;;;10.57;62.24
27144;BME280;14672;50.250;8.312;2024-02-14T04:36:55;99048.06;;;10.57;61.98
27144;BME280;14672;50.250;8.312;2024-02-14T04:39:22;99048.88;;;10.45;62.66
27144;BME280;14672;50.250;8.312;2024-02-14T04:41:47;99051.94;;;10.50;62.15
27144;BME280;14672;50.250;8.312;2024-02-14T04:44:15;99055.00;;;10.56;62.41
27144;BME280;14672;50.250;8.312;2024-02-14T04:46:41;99050.47;;;10.46;62.58
27144;BME280;14672;50.250;8.312;2024-02-14T04:49:09;99049.66;;;10.45;63.02
27144;BME280;14672;50.250;8.312;2024-02-14T04:51:35;99045.56;;;10.21;63.87
27144;BME280;14672;50.250;8.312;2024-02-14T04:54:01;99048.06;;;10.44;63.56
27144;BME280;14672;50.250;8.312;2024-02-14T04:56:27;99042.28;;;10.35;64.15
27144;BME280;14672;50.250;8.312;2024-02-14T04:58:53;99045.03;;;10.39;64.55
27144;BME280;14672;50.250;8.312;2024-02-14T05:01:20;99041.72;;;10.40;64.79
27144;BME280;14672;50.250;8.312;2024-02-14T05:03:46;99031.81;;;10.32;65.71
27144;BME280;14672;50.250;8.312;2024-02-14T05:06:12;99026.59;;;10.30;65.38
27144;BME280;14672;50.250;8.312;2024-02-14T05:08:38;99021.50;;;10.25;65.57
27144;BME280;14672;50.250;8.312;2024-02-14T05:11:03;99023.97;;;10.36;65.08
27144;BME280;14672;50.250;8.312;2024-02-14T05:13:30;99035.31;;;10.23;65.23
27144;BME280;14672;50.250;8.312;2024-02-14T05:15:56;99028.06;;;10.22;65.82
27144;BME280;14672;50.250;8.312;2024-02-14T05:18:22;99040.69;;;10.21;65.11
27144;BME280;14672;50.250;8.312;2024-02-14T05:20:48;99030.34;;;10.27;65.43
27144;BME280;14672;50.250;8.312;2024-02-14T05:23:15;99036.72;;;10.19;64.98
27144;BME280;14672;50.250;8.312;2024-02-14T05:25:43;99040.69;;;10.21;65.49
27144;BME280;14672;50.250;8.312;2024-02-14T05:28:09;99041.38;;;10.25;65.47
27144;BME280;14672;50.250;8.312;2024-02-14T05:30:40;99031.59;;;10.26;65.90
27144;BME280;14672;50.250;8.312;2024-02-14T05:33:06;99043.66;;;10.30;65.58
27144;BME280;14672;50.250;8.312;2024-02-14T05:35:32;99056.00;;;10.24;65.90
27144;BME280;14672;50.250;8.312;2024-02-14T05:37:58;99054.75;;;10.25;65.88
27144;BME280;14672;50.250;8.312;2024-02-14T05:40:23;99056.31;;;10.13;66.43
27144;BME280;14672;50.250;8.312;2024-02-14T05:42:50;99053.53;;;10.26;66.14
27144;BME280;14672;50.250;8.312;2024-02-14T05:45:15;99054.66;;;10.28;66.57
27144;BME280;14672;50.250;8.312;2024-02-14T05:47:42;99057.25;;;10.35;66.37
27144;BME280;14672;50.250;8.312;2024-02-14T05:50:09;99042.75;;;10.33;66.17
27144;BME280;14672;50.250;8.312;2024-02-14T05:52:37;99059.78;;;10.33;66.25
27144;BME280;14672;50.250;8.312;2024-02-14T05:55:04;99059.66;;;10.37;66.19
27144;BME280;14672;50.250;8.312;2024-02-14T05:57:30;99065.56;;;10.30;66.02
27144;BME280;14672;50.250;8.312;2024-02-14T05:59:56;99068.28;;;10.33;66.25
27144;BME280;14672;50.250;8.312;2024-02-14T06:02:22;99061.69;;;10.36;66.73
27144;BME280;14672;50.250;8.312;2024-02-14T06:04:48;99073.41;;;10.39;66.42
27144;BME280;14672;50.250;8.312;2024-02-14T06:07:13;99066.03;;;10.41;66.15
27144;BME280;14672;50.250;8.312;2024-02-14T06:09:39;99070.69;;;10.48;66.08
27144;BME280;14672;50.250;8.312;2024-02-14T06:12:06;99063.28;;;10.38;66.04
27144;BME280;14672;50.250;8.312;2024-02-14T06:14:32;99068.44;;;10.43;66.61
27144;BME280;14672;50.250;8.312;2024-02-14T06:17:00;99069.91;;;10.34;66.75
27144;BME280;14672;50.250;8.312;2024-02-14T06:19:27;99070.22;;;10.36;66.23
27144;BME280;14672;50.250;8.312;2024-02-14T06:21:53;99078.41;;;10.47;66.37
27144;BME280;14672;50.250;8.312;2024-02-14T06:24:19;99079.66;;;10.46;66.55
27144;BME280;14672;50.250;8.312;2024-02-14T06:26:45;99080.56;;;10.43;66.13
27144;BME280;14672;50.250;8.312;2024-02-14T06:29:11;99087.28;;;10.49;66.14
27144;BME280;14672;50.250;8.312;2024-02-14T06:31:37;99092.81;;;10.40;66.58
27144;BME280;14672;50.250;8.312;2024-02-14T06:34:03;99077.50;;;10.50;66.03
27144;BME280;14672;50.250;8.312;2024-02-14T06:36:29;99097.16;;;10.57;66.15
27144;BME280;14672;50.250;8.312;2024-02-14T06:38:54;99095.13;;;10.45;66.81
27144;BME280;14672;50.250;8.312;2024-02-14T06:41:20;99106.50;;;10.58;66.02
27144;BME280;14672;50.250;8.312;2024-02-14T06:43:46;99096.25;;;10.48;66.53
27144;BME280;14672;50.250;8.312;2024-02-14T06:46:12;99101.13;;;10.60;66.07
27144;BME280;14672;50.250;8.312;2024-02-14T06:48:38;99104.22;;;10.53;66.36
27144;BME280;14672;50.250;8.312;2024-02-14T06:51:08;99105.94;;;10.63;66.39
27144;BME280;14672;50.250;8.312;2024-02-14T06:53:34;99120.91;;;10.63;66.13
27144;BME280;14672;50.250;8.312;2024-02-14T06:56:01;99106.63;;;10.67;65.74
27144;BME280;14672;50.250;8.312;2024-02-14T06:58:26;99108.88;;;10.72;66.17
27144;BME280;14672;50.250;8.312;2024-02-14T07:00:52;99116.38;;;10.66;66.29
27144;BME280;14672;50.250;8.312;2024-02-14T07:03:18;99110.34;;;10.76;66.35
27144;BME280;14672;50.250;8.312;2024-02-14T07:05:44;99107.88;;;10.66;66.60
27144;BME280;14672;50.250;8.312;2024-02-14T07:08:09;99110.47;;;10.73;66.36
27144;BME280;14672;50.250;8.312;2024-02-14T07:10:36;99103.06;;;10.75;66.52
27144;BME280;14672;50.250;8.312;2024-02-14T07:13:01;99103.41;;;10.65;66.57
27144;BME280;14672;50.250;8.312;2024-02-14T07:15:28;99094.66;;;10.72;66.46
27144;BME280;14672;50.250;8.312;2024-02-14T07:17:55;99091.72;;;10.75;66.99
27144;BME280;14672;50.250;8.312;2024-02-14T07:20:21;99098.31;;;10.85;66.49
27144;BME280;14672;50.250;8.312;2024-02-14T07:22:48;99097.63;;;10.81;66.74
27144;BME280;14672;50.250;8.312;2024-02-14T07:25:19;99094.66;;;10.84;67.18
27144;BME280;14672;50.250;8.312;2024-02-14T07:27:45;99100.59;;;10.65;67.82
27144;BME280;14672;50.250;8.312;2024-02-14T07:30:16;99112.03;;;10.36;68.73
27144;BME280;14672;50.250;8.312;2024-02-14T07:32:46;99115.06;;;10.29;69.76
27144;BME280;14672;50.250;8.312;2024-02-14T07:35:12;99111.69;;;10.34;69.85
27144;BME280;14672;50.250;8.312;2024-02-14T07:37:39;99118.97;;;10.60;68.25
27144;BME280;14672;50.250;8.312;2024-02-14T07:40:09;99119.66;;;10.52;68.67
27144;BME280;14672;50.250;8.312;2024-02-14T07:42:35;99125.00;;;10.50;69.08
27144;BME280;14672;50.250;8.312;2024-02-14T07:45:01;99126.16;;;10.65;68.59
27144;BME280;14672;50.250;8.312;2024-02-14T07:47:29;99123.22;;;10.81;68.05
27144;BME280;14672;50.250;8.312;2024-02-14T07:49:58;99132.41;;;10.72;68.73
27144;BME280;14672;50.250;8.312;2024-02-14T07:52:24;99124.22;;;10.87;68.33
27144;BME280;14672;50.250;8.312;2024-02-14T07:54:53;99130.50;;;10.82;68.05
27144;BME280;14672;50.250;8.312;2024-02-14T07:57:22;99128.66;;;10.63;69.28
27144;BME280;14672;50.250;8.312;2024-02-14T07:59:48;99123.88;;;10.85;68.26
27144;BME280;14672;50.250;8.312;2024-02-14T08:02:14;99126.28;;;10.74;69.24
27144;BME280;14672;50.250;8.312;2024-02-14T08:04:40;99125.59;;;10.70;68.57
27144;BME280;14672;50.250;8.312;2024-02-14T08:07:06;99116.63;;;10.59;69.88
27144;BME280;14672;50.250;8.312;2024-02-14T08:09:32;99110.72;;;10.78;69.15
27144;BME280;14672;50.250;8.312;2024-02-14T08:11:57;99112.41;;;10.89;69.20
27144;BME280;14672;50.250;8.312;2024-02-14T08:14:23;99119.34;;;11.00;68.62
27144;BME280;14672;50.250;8.312;2024-02-14T08:16:49;99121.94;;;11.07;68.26
27144;BME280;14672;50.250;8.312;2024-02-14T08:19:15;99127.19;;;10.83;68.85
27144;BME280;14672;50.250;8.312;2024-02-14T08:21:41;99115.59;;;10.91;68.74
27144;BME280;14672;50.250;8.312;2024-02-14T08:24:07;99125.03;;;11.00;68.78
27144;BME280;14672;50.250;8.312;2024-02-14T08:26:33;99120.69;;;11.21;68.07
27144;BME280;14672;50.250;8.312;2024-02-14T08:28:58;99129.09;;;11.24;68.44
27144;BME280;14672;50.250;8.312;2024-02-14T08:31:24;99129.88;;;11.38;67.83
27144;BME280;14672;50.250;8.312;2024-02-14T08:33:50;99131.25;;;11.33;68.18
27144;BME280;14672;50.250;8.312;2024-02-14T08:36:16;99135.09;;;11.39;68.13
27144;BME280;14672;50.250;8.312;2024-02-14T08:38:43;99138.03;;;11.48;67.43
27144;BME280;14672;50.250;8.312;2024-02-14T08:41:09;99141.69;;;11.49;68.16
27144;BME280;14672;50.250;8.312;2024-02-14T08:43:35;99148.75;;;11.31;68.41
27144;BME280;14672;50.250;8.312;2024-02-14T08:46:00;99141.13;;;11.41;68.83
27144;BME280;14672;50.250;8.312;2024-02-14T08:48:26;99135.75;;;11.43;68.26
27144;BME280;14672;50.250;8.312;2024-02-14T08:50:54;99143.44;;;11.21;69.11
27144;BME280;14672;50.250;8.312;2024-02-14T08:53:20;99153.31;;;11.29;69.62
27144;BME280;14672;50.250;8.312;2024-02-14T08:55:47;99147.69;;;11.51;68.50
27144;BME280;14672;50.250;8.312;2024-02-14T08:58:12;99140.94;;;11.10;70.25
27144;BME280;14672;50.250;8.312;2024-02-14T09:00:38;99154.50;;;11.66;68.83
27144;BME280;14672;50.250;8.312;2024-02-14T09:03:05;99152.13;;;11.64;69.12
27144;BME280;14672;50.250;8.312;2024-02-14T09:05:31;99143.25;;;11.62;68.88
27144;BME280;14672;50.250;8.312;2024-02-14T09:07:57;99144.56;;;11.83;68.58
27144;BME280;14672;50.250;8.312;2024-02-14T09:10:23;99149.25;;;11.77;69.41
27144;BME280;14672;50.250;8.312;2024-02-14T09:12:51;99144.69;;;11.67;69.47
27144;BME280;14672;50.250;8.312;2024-02-14T09:15:18;99149.59;;;11.79;69.23
27144;BME280;14672;50.250;8.312;2024-02-14T09:17:45;99147.28;;;11.87;68.56
27144;BME280;14672;50.250;8.312;2024-02-14T09:20:11;99151.06;;;11.71;69.53
27144;BME280;14672;50.250;8.312;2024-02-14T09:22:39;99147.94;;;11.91;68.57
27144;BME280;14672;50.250;8.312;2024-02-14T09:25:07;99153.84;;;11.96;68.75
27144;BME280;14672;50.250;8.312;2024-02-14T09:27:35;99147.53;;;12.36;67.68
27144;BME280;14672;50.250;8.312;2024-02-14T09:30:02;99148.06;;;12.21;68.34
27144;BME280;14672;50.250;8.312;2024-02-14T09:32:33;99155.28;;;12.13;68.08
27144;BME280;14672;50.250;8.312;2024-02-14T09:35:01;99161.34;;;12.03;68.30
27144;BME280;14672;50.250;8.312;2024-02-14T09:37:30;99150.03;;;12.12;68.19
27144;BME280;14672;50.250;8.312;2024-02-14T09:39:56;99150.63;;;12.07;68.40
27144;BME280;14672;50.250;8.312;2024-02-14T09:42:35;99149.06;;;12.06;68.03
27144;BME280;14672;50.250;8.312;2024-02-14T09:45:06;99146.84;;;12.32;68.47
27144;BME280;14672;50.250;8.312;2024-02-14T09:47:33;99144.41;;;13.04;66.01
27144;BME280;14672;50.250;8.312;2024-02-14T09:50:01;99146.06;;;13.63;65.16
27144;BME280;14672;50.250;8.312;2024-02-14T09:52:29;99147.59;;;13.46;64.99
27144;BME280;14672;50.250;8.312;2024-02-14T09:54:57;99146.22;;;13.78;63.68
27144;BME280;14672;50.250;8.312;2024-02-14T09:57:23;99141.00;;;13.86;63.37
27144;BME280;14672;50.250;8.312;2024-02-14T09:59:49;99137.34;;;13.76;63.94
27144;BME280;14672;50.250;8.312;2024-02-14T10:02:17;99148.16;;;13.81;63.37
27144;BME280;14672;50.250;8.312;2024-02-14T10:04:43;99136.72;;;13.72;63.41
27144;BME280;14672;50.250;8.312;2024-02-14T10:07:09;99149.09;;;13.69;63.91
27144;BME280;14672;50.250;8.312;2024-02-14T10:09:41;99139.69;;;13.59;63.75
27144;BME280;14672;50.250;8.312;2024-02-14T10:12:09;99139.53;;;13.45;64.36
27144;BME280;14672;50.250;8.312;2024-02-14T10:14:39;99139.53;;;13.63;64.19
27144;BME280;14672;50.250;8.312;2024-02-14T10:17:06;99148.69;;;13.40;64.53
27144;BME280;14672;50.250;8.312;2024-02-14T10:19:37;99160.31;;;13.14;65.85
27144;BME280;14672;50.250;8.312;2024-02-14T10:22:02;99158.47;;;13.30;64.75
27144;BME280;14672;50.250;8.312;2024-02-14T10:24:29;99162.72;;;13.16;65.10
27144;BME280;14672;50.250;8.312;2024-02-14T10:26:58;99155.63;;;13.30;64.70
27144;BME280;14672;50.250;8.312;2024-02-14T10:29:27;99156.56;;;13.27;65.29
27144;BME280;14672;50.250;8.312;2024-02-14T10:31:53;99165.03;;;13.39;64.77
27144;BME280;14672;50.250;8.312;2024-02-14T10:34:19;99179.47;;;12.83;66.35
27144;BME280;14672;50.250;8.312;2024-02-14T10:36:53;99174.66;;;13.02;65.87
27144;BME280;14672;50.250;8.312;2024-02-14T10:39:19;99186.72;;;13.06;66.07
27144;BME280;14672;50.250;8.312;2024-02-14T10:41:46;99175.94;;;13.32;65.63
27144;BME280;14672;50.250;8.312;2024-02-14T10:44:11;99192.09;;;13.35;65.73
27144;BME280;14672;50.250;8.312;2024-02-14T10:46:40;99190.44;;;13.55;64.98
27144;BME280;14672;50.250;8.312;2024-02-14T10:49:08;99171.13;;;13.20;66.08
27144;BME280;14672;50.250;8.312;2024-02-14T10:51:38;99177.78;;;12.86;66.88
27144;BME280;14672;50.250;8.312;2024-02-14T10:54:13;99171.09;;;13.10;66.93
27144;BME280;14672;50.250;8.312;2024-02-14T10:56:44;99175.19;;;13.09;66.46
27144;BME280;14672;50.250;8.312;2024-02-14T10:59:16;99171.06;;;13.50;65.48
27144;BME280;14672;50.250;8.312;2024-02-14T11:01:44;99168.91;;;13.73;64.83
27144;BME280;14672;50.250;8.312;2024-02-14T11:04:11;99170.63;;;13.70;64.83
27144;BME280;14672;50.250;8.312;2024-02-14T11:06:48;99183.34;;;13.69;64.93
27144;BME280;14672;50.250;8.312;2024-02-14T11:09:14;99182.91;;;13.98;63.83
27144;BME280;14672;50.250;8.312;2024-02-14T11:11:47;99169.72;;;13.82;64.43
27144;BME280;14672;50.250;8.312;2024-02-14T11:14:18;99174.28;;;13.71;64.78
27144;BME280;14672;50.250;8.312;2024-02-14T11:16:47;99176.22;;;13.83;64.50
27144;BME280;14672;50.250;8.312;2024-02-14T11:19:14;99171.00;;;13.81;64.51
27144;BME280;14672;50.250;8.312;2024-02-14T11:21:44;99168.44;;;14.01;63.88
27144;BME280;14672;50.250;8.312;2024-02-14T11:24:15;99170.66;;;13.97;64.31
27144;BME280;14672;50.250;8.312;2024-02-14T11:26:48;99160.22;;;14.03;64.71
27144;BME280;14672;50.250;8.312;2024-02-14T11:29:18;99167.84;;;14.16;64.16
27144;BME280;14672;50.250;8.312;2024-02-14T11:31:45;99163.06;;;14.22;63.97
27144;BME280;14672;50.250;8.312;2024-02-14T11:34:13;99155.44;;;14.19;63.82
27144;BME280;14672;50.250;8.312;2024-02-14T11:36:42;99165.47;;;14.32;63.64
27144;BME280;14672;50.250;8.312;2024-02-14T11:39:08;99171.34;;;14.20;63.51
27144;BME280;14672;50.250;8.312;2024-02-14T11:41:34;99165.75;;;14.34;63.65
27144;BME280;14672;50.250;8.312;2024-02-14T11:44:06;99173.56;;;14.25;64.41
27144;BME280;14672;50.250;8.312;2024-02-14T11:46:34;99171.47;;;14.25;64.29
27144;BME280;14672;50.250;8.312;2024-02-14T11:49:03;99166.56;;;14.07;64.45
27144;BME280;14672;50.250;8.312;2024-02-14T11:51:30;99175.47;;;14.00;64.27
27144;BME280;14672;50.250;8.312;2024-02-14T11:54:00;99168.31;;;14.14;63.78
27144;BME280;14672;50.250;8.312;2024-02-14T11:56:38;99168.94;;;14.00;64.36
27144;BME280;14672;50.250;8.312;2024-02-14T11:59:07;99176.84;;;13.87;64.09
27144;BME280;14672;50.250;8.312;2024-02-14T12:01:35;99178.28;;;13.91;63.93
27144;BME280;14672;50.250;8.312;2024-02-14T12:04:06;99184.31;;;13.84;64.55
27144;BME280;14672;50.250;8.312;2024-02-14T12:06:35;99181.47;;;13.84;64.50
27144;BME280;14672;50.250;8.312;2024-02-14T12:09:02;99174.13;;;13.74;64.57
27144;BME280;14672;50.250;8.312;2024-02-14T12:11:39;99177.03;;;13.83;64.53
27144;BME280;14672;50.250;8.312;2024-02-14T12:14:06;99181.31;;;13.30;65.82
27144;BME280;14672;50.250;8.312;2024-02-14T12:16:36;99179.63;;;13.41;65.72
27144;BME280;14672;50.250;8.312;2024-02-14T12:19:15;99175.25;;;13.18;66.81
27144;BME280;14672;50.250;8.312;2024-02-14T12:21:42;99173.38;;;13.34;66.57
27144;BME280;14672;50.250;8.312;2024-02-14T12:24:12;99167.25;;;13.44;66.48
27144;BME280;14672;50.250;8.312;2024-02-14T12:26:42;99168.69;;;13.49;66.77
27144;BME280;14672;50.250;8.312;2024-02-14T12:29:11;99161.56;;;13.44;66.47
27144;BME280;14672;50.250;8.312;2024-02-14T12:31:38;99165.13;;;13.18;67.01
27144;BME280;14672;50.250;8.312;2024-02-14T12:34:07;99155.22;;;13.58;66.34
27144;BME280;14672;50.250;8.312;2024-02-14T12:36:34;99156.03;;;13.59;66.47
27144;BME280;14672;50.250;8.312;2024-02-14T12:39:03;99152.72;;;13.60;66.02
27144;BME280;14672;50.250;8.312;2024-02-14T12:41:30;99157.28;;;13.58;66.50
27144;BME280;14672;50.250;8.312;2024-02-14T12:43:58;99158.53;;;13.48;67.06
27144;BME280;14672;50.250;8.312;2024-02-14T12:46:25;99152.44;;;13.77;65.64
27144;BME280;14672;50.250;8.312;2024-02-14T12:48:51;99151.94;;;13.69;66.62
27144;BME280;14672;50.250;8.312;2024-02-14T12:51:17;99148.63;;;13.80;66.19
27144;BME280;14672;50.250;8.312;2024-02-14T12:53:43;99154.00;;;13.87;65.66
27144;BME280;14672;50.250;8.312;2024-02-14T12:56:09;99160.13;;;13.58;66.55
27144;BME280;14672;50.250;8.312;2024-02-14T12:58:35;99157.50;;;13.82;66.17